This is the latest recevied weather packets stored in our database for station/object VK5ARG-5. If no packets are shown the sender has not sent any weather packets the latest 10 day(s).
| Time | Temp. | Humidity | Pressure | Rain* | Wind** | Luminosity | Snow |
|---|---|---|---|---|---|---|---|
| 1778165125 | 10.56° C | 86% | - | 0 mm | - | - | - |
| 1778163926 | 10.56° C | 84% | - | 0 mm | - | - | - |
| 1778156143 | 10.56° C | 79% | - | 0 mm | - | - | - |
| 1778155527 | 10.56° C | 79% | - | 0 mm | - | - | - |
| 1778154328 | 10.56° C | 80% | - | 0 mm | - | - | - |
| 1778153725 | 10.56° C | 80% | - | 0 mm | - | - | - |
| 1778152525 | 10.56° C | 79% | - | 0 mm | - | - | - |
| 1778149525 | 10.56° C | 81% | - | 0 mm | - | - | - |
| 1778148929 | 10.56° C | 82% | - | 0 mm | - | - | - |
| 1778147722 | 10.56° C | 81% | - | 0 mm | - | - | - |
| 1778144125 | 10.56° C | 74% | - | 0 mm | - | - | - |
| 1778142323 | 10.56° C | 69% | - | 0 mm | - | - | - |
| 1778137527 | 11.67° C | 64% | - | 0 mm | - | - | - |
| 1778130921 | 13.33° C | 58% | - | 0 mm | - | - | - |
| 1778130348 | 12.78° C | 58% | - | 0 mm | - | - | - |
| 1778129148 | 12.22° C | 66% | - | 0 mm | - | - | - |
| 1778127929 | 12.22° C | 66% | - | 0 mm | - | - | - |
| 1778127325 | 12.22° C | 63% | - | 0 mm | - | - | - |
| 1778123729 | 12.78° C | 56% | - | 0 mm | - | - | - |
| 1778112327 | 10.56° C | 72% | - | 0 mm | - | - | - |
| 1778109368 | 10° C | 76% | - | 0 mm | - | - | - |
| 1778107524 | 9.44° C | 78% | - | 0 mm | - | - | - |
| 1778103345 | 8.33° C | 80% | - | 0 mm | - | - | - |
| 1778100926 | 8.89° C | 78% | - | 0 mm | - | - | - |
| 1778099728 | 8.89° C | 76% | - | 0 mm | - | - | - |
* Rain latest hour (hover to see other rain measurements)
** Current wind speed in m/s (hover to see current wind gust speed)